Time;durP1;ratioP1;P1;durP2;ratioP2;P2;SDS_P1;SDS_P2;PMS_P1;PMS_P2;Temp;Humidity;BMP_temperature;BMP_pressure;BME280_temperature;BME280_humidity;BME280_pressure;Samples;Min_cycle;Max_cycle;Signal;HPM_P1;HPM_P2
2022/05/13 00:01:57;;;;;;;;;;;13.40;99.90;;;;;;4989131;28;20044;-77
2022/05/13 00:04:23;;;;;;;;;;;13.40;99.90;;;;;;4980193;28;20000;-78
2022/05/13 00:06:49;;;;;;;;;;;13.40;99.90;;;;;;4992766;28;19926;-77
2022/05/13 00:09:14;;;;;;;;;;;13.40;99.90;;;;;;4975262;28;19926;-77
2022/05/13 00:11:40;;;;;;;;;;;13.30;99.90;;;;;;5008740;28;19936;-78
2022/05/13 00:14:07;;;;;;;;;;;13.40;99.90;;;;;;4975067;28;20398;-78
2022/05/13 00:16:35;;;;;;;;;;;13.40;99.90;;;;;;4992339;28;19969;-77
2022/05/13 00:19:01;;;;;;;;;;;13.40;99.90;;;;;;4992115;28;19936;-77
2022/05/13 00:21:27;;;;;;;;;;;13.30;99.90;;;;;;5008094;28;19926;-78
2022/05/13 00:23:52;;;;;;;;;;;13.30;99.90;;;;;;5008719;28;19953;-81
2022/05/13 00:26:18;;;;;;;;;;;13.40;99.90;;;;;;4991624;28;20382;-80
2022/05/13 00:28:44;;;;;;;;;;;13.30;99.90;;;;;;5007530;28;19972;-80
2022/05/13 00:31:12;;;;;;;;;;;13.30;99.90;;;;;;5007672;28;19933;-80
2022/05/13 00:33:38;;;;;;;;;;;13.30;99.90;;;;;;4976267;28;19933;-80
2022/05/13 00:36:04;;;;;;;;;;;13.30;99.90;;;;;;5007564;28;19973;-80
2022/05/13 00:38:30;;;;;;;;;;;13.30;99.90;;;;;;5008304;28;19971;-81
2022/05/13 00:40:56;;;;;;;;;;;13.30;99.90;;;;;;5008288;28;19929;-79
2022/05/13 00:43:57;;;;;;;;;;;13.30;99.90;;;;;;4991623;28;19921;-80
2022/05/13 00:46:23;;;;;;;;;;;13.30;99.90;;;;;;4958564;28;19934;-80
2022/05/13 00:48:49;;;;;;;;;;;13.30;99.90;;;;;;4984871;28;20281;-77
2022/05/13 00:51:23;;;;;;;;;;;13.30;99.90;;;;;;4964223;28;19930;-79
2022/05/13 00:53:49;;;;;;;;;;;13.30;99.90;;;;;;5010567;28;19929;-80
2022/05/13 00:56:15;;;;;;;;;;;13.30;99.90;;;;;;4995678;28;19929;-80
2022/05/13 00:58:42;;;;;;;;;;;13.30;99.90;;;;;;4979094;28;19934;-80
2022/05/13 01:01:08;;;;;;;;;;;13.30;99.90;;;;;;4995340;28;19926;-80
2022/05/13 01:03:35;;;;;;;;;;;13.30;99.90;;;;;;4978950;28;19926;-80
2022/05/13 01:06:03;;;;;;;;;;;13.30;99.90;;;;;;4994853;28;19936;-80
2022/05/13 01:08:31;;;;;;;;;;;13.30;99.90;;;;;;4995271;28;19985;-80
2022/05/13 01:10:57;;;;;;;;;;;13.30;99.90;;;;;;5011700;28;19925;-80
2022/05/13 01:13:23;;;;;;;;;;;13.30;99.90;;;;;;5011139;28;19949;-80
2022/05/13 01:15:51;;;;;;;;;;;13.30;99.90;;;;;;4979549;28;20407;-80
2022/05/13 01:18:27;;;;;;;;;;;13.20;99.90;;;;;;4995144;28;20290;-80
2022/05/13 01:20:53;;;;;;;;;;;13.20;99.90;;;;;;5011403;28;20013;-79
2022/05/13 01:23:20;;;;;;;;;;;13.20;99.90;;;;;;5007261;28;20013;-81
2022/05/13 01:25:53;;;;;;;;;;;13.20;99.90;;;;;;4975924;28;20406;-80
2022/05/13 01:28:30;;;;;;;;;;;13.20;99.90;;;;;;5005911;28;19926;-80
2022/05/13 01:30:57;;;;;;;;;;;13.20;99.90;;;;;;5008684;28;19929;-77
2022/05/13 01:33:23;;;;;;;;;;;13.20;99.90;;;;;;5519785;22;19979;-81
2022/05/13 01:35:50;;;;;;;;;;;13.20;99.90;;;;;;5033725;28;20365;-81
2022/05/13 01:38:16;;;;;;;;;;;13.20;99.90;;;;;;5030231;28;19929;-80
2022/05/13 01:40:42;;;;;;;;;;;13.20;99.90;;;;;;5017589;28;19925;-81
2022/05/13 01:43:08;;;;;;;;;;;13.20;99.90;;;;;;5034254;28;20012;-81
2022/05/13 01:45:34;;;;;;;;;;;13.20;99.90;;;;;;5034519;28;19929;-81
2022/05/13 01:48:00;;;;;;;;;;;13.20;99.90;;;;;;5001210;28;19932;-81
2022/05/13 01:50:26;;;;;;;;;;;13.20;99.90;;;;;;5015614;28;20012;-81
2022/05/13 01:52:53;;;;;;;;;;;13.20;99.90;;;;;;5014673;28;19933;-82
2022/05/13 01:55:19;;;;;;;;;;;13.10;99.90;;;;;;4997846;28;19925;-80
2022/05/13 01:57:45;;;;;;;;;;;13.10;99.90;;;;;;5014552;28;20024;-82
2022/05/13 02:00:11;;;;;;;;;;;13.10;99.90;;;;;;4998665;28;20004;-80
2022/05/13 02:03:44;;;;;;;;;;;13.10;99.90;;;;;;4997745;28;19930;-81
2022/05/13 02:05:24;;;;;;;;;;;13.10;99.90;;;;;;5000232;28;20428;-80
2022/05/13 02:07:50;;;;;;;;;;;13.10;99.90;;;;;;5014410;28;20452;-80
2022/05/13 02:10:16;;;;;;;;;;;13.10;99.90;;;;;;4993458;28;19936;-80
2022/05/13 02:12:41;;;;;;;;;;;13.10;99.90;;;;;;5033782;28;20037;-80
2022/05/13 02:15:07;;;;;;;;;;;13.10;99.90;;;;;;5017256;28;19925;-83
2022/05/13 02:17:33;;;;;;;;;;;13.00;99.90;;;;;;5017148;28;20392;-80
2022/05/13 02:19:58;;;;;;;;;;;13.00;99.90;;;;;;5032139;28;20004;-80
2022/05/13 02:22:24;;;;;;;;;;;13.00;99.90;;;;;;5016986;28;19932;-80
2022/05/13 02:24:50;;;;;;;;;;;13.00;99.90;;;;;;5016948;28;19929;-79
2022/05/13 02:27:16;;;;;;;;;;;13.00;99.90;;;;;;5033708;28;19936;-81
2022/05/13 02:29:41;;;;;;;;;;;13.00;99.90;;;;;;5031238;28;19925;-80
2022/05/13 02:32:07;;;;;;;;;;;13.00;99.90;;;;;;4997129;28;20685;-80
2022/05/13 02:34:36;;;;;;;;;;;13.00;99.90;;;;;;5016144;28;20374;-80
2022/05/13 02:37:02;;;;;;;;;;;13.00;99.90;;;;;;5017612;28;19932;-80
2022/05/13 02:39:28;;;;;;;;;;;12.90;99.90;;;;;;5032800;28;19925;-80
2022/05/13 02:41:54;;;;;;;;;;;12.90;99.90;;;;;;5000658;28;19931;-80
2022/05/13 02:44:19;;;;;;;;;;;13.00;99.90;;;;;;4996790;28;19975;-80
2022/05/13 02:46:47;;;;;;;;;;;13.00;99.90;;;;;;5032813;28;20286;-80
2022/05/13 02:49:12;;;;;;;;;;;13.00;99.90;;;;;;5036420;28;20011;-80
2022/05/13 02:51:40;;;;;;;;;;;13.00;99.90;;;;;;5012185;28;20016;-80
2022/05/13 02:54:05;;;;;;;;;;;13.00;99.90;;;;;;4980801;28;19929;-81
2022/05/13 02:56:31;;;;;;;;;;;13.00;99.90;;;;;;4996948;28;19925;-80
2022/05/13 02:58:56;;;;;;;;;;;13.00;99.90;;;;;;5013037;28;20337;-80
2022/05/13 03:01:22;;;;;;;;;;;13.00;99.90;;;;;;4984104;28;19972;-80
2022/05/13 03:03:49;;;;;;;;;;;13.00;99.90;;;;;;5012493;28;19925;-80
2022/05/13 03:06:15;;;;;;;;;;;13.00;99.90;;;;;;5013106;28;19925;-80
2022/05/13 03:08:40;;;;;;;;;;;13.00;99.90;;;;;;4995934;28;20285;-81
2022/05/13 03:11:07;;;;;;;;;;;13.00;99.90;;;;;;4998717;28;20374;-80
2022/05/13 03:13:32;;;;;;;;;;;13.00;99.90;;;;;;5032259;28;20427;-79
2022/05/13 03:16:19;;;;;;;;;;;13.00;99.90;;;;;;5016486;28;20011;-80
2022/05/13 03:18:54;;;;;;;;;;;13.00;99.90;;;;;;5032833;28;19925;-80
2022/05/13 03:21:20;;;;;;;;;;;13.00;99.90;;;;;;5014638;28;20400;-80
2022/05/13 03:23:46;;;;;;;;;;;13.00;99.90;;;;;;4998964;28;19929;-80
2022/05/13 03:26:13;;;;;;;;;;;13.00;99.90;;;;;;5000755;28;19926;-80
2022/05/13 03:28:39;;;;;;;;;;;13.00;99.90;;;;;;5032403;28;19925;-79
2022/05/13 03:31:04;;;;;;;;;;;13.00;99.90;;;;;;5031993;28;19933;-80
2022/05/13 03:33:30;;;;;;;;;;;13.00;99.90;;;;;;5016413;28;19936;-80
2022/05/13 03:35:56;;;;;;;;;;;13.00;99.90;;;;;;4998230;28;19933;-80
2022/05/13 03:38:21;;;;;;;;;;;13.00;99.90;;;;;;5013670;28;20286;-80
2022/05/13 03:40:47;;;;;;;;;;;13.00;99.90;;;;;;5012228;28;19925;-80
2022/05/13 03:43:12;;;;;;;;;;;13.00;99.90;;;;;;5012729;28;19980;-80
2022/05/13 03:45:38;;;;;;;;;;;13.00;99.90;;;;;;5028778;28;19929;-80
2022/05/13 03:48:04;;;;;;;;;;;13.00;99.90;;;;;;5035190;28;20419;-81
2022/05/13 03:50:30;;;;;;;;;;;13.00;99.90;;;;;;5051367;28;19947;-80
2022/05/13 03:52:55;;;;;;;;;;;13.00;99.90;;;;;;5035291;28;19928;-79
2022/05/13 03:55:22;;;;;;;;;;;12.90;99.90;;;;;;5029632;28;20408;-82
2022/05/13 03:57:48;;;;;;;;;;;12.90;99.90;;;;;;5028502;28;19925;-79
2022/05/13 04:00:15;;;;;;;;;;;12.90;99.90;;;;;;5031465;28;19925;-81
2022/05/13 04:02:40;;;;;;;;;;;13.00;99.90;;;;;;5031356;28;19952;-81
2022/05/13 04:10:35;;;;;;;;;;;12.90;99.90;;;;;;5011550;28;19932;-78
2022/05/13 04:18:29;;;;;;;;;;;12.90;99.90;;;;;;5011741;28;19926;-80
2022/05/13 04:20:55;;;;;;;;;;;12.90;99.90;;;;;;4994980;28;19932;-78
2022/05/13 04:23:20;;;;;;;;;;;12.90;99.90;;;;;;4995244;28;19929;-79
2022/05/13 04:25:46;;;;;;;;;;;12.90;99.90;;;;;;5012929;28;19968;-81
2022/05/13 04:28:11;;;;;;;;;;;12.90;99.90;;;;;;4995797;28;19933;-79
2022/05/13 04:30:37;;;;;;;;;;;12.90;99.90;;;;;;4994563;28;20028;-77
2022/05/13 04:33:03;;;;;;;;;;;12.90;99.90;;;;;;5011699;28;20020;-77
2022/05/13 04:35:28;;;;;;;;;;;12.90;99.90;;;;;;4995940;28;19925;-77
2022/05/13 04:37:54;;;;;;;;;;;12.90;99.90;;;;;;5027153;28;19925;-78
2022/05/13 04:40:19;;;;;;;;;;;12.90;99.90;;;;;;4998517;28;19936;-77
2022/05/13 04:42:51;;;;;;;;;;;12.90;99.90;;;;;;5014606;28;19983;-77
2022/05/13 04:45:24;;;;;;;;;;;13.00;99.90;;;;;;5030574;28;20344;-76
2022/05/13 04:50:34;;;;;;;;;;;13.00;99.90;;;;;;5031070;28;19933;-77
2022/05/13 04:53:00;;;;;;;;;;;13.00;99.90;;;;;;5031354;28;19925;-77
2022/05/13 04:55:26;;;;;;;;;;;13.00;99.90;;;;;;5031278;28;19991;-80
2022/05/13 04:57:52;;;;;;;;;;;13.00;99.90;;;;;;5024067;28;19925;-80
2022/05/13 05:00:17;;;;;;;;;;;13.00;99.90;;;;;;4999637;28;19930;-78
2022/05/13 05:02:43;;;;;;;;;;;13.00;99.90;;;;;;4994821;28;19949;-82
2022/05/13 05:05:09;;;;;;;;;;;13.00;99.90;;;;;;5014359;28;19925;-81
2022/05/13 05:07:34;;;;;;;;;;;13.00;99.90;;;;;;4997414;28;19980;-78
2022/05/13 05:10:00;;;;;;;;;;;13.00;99.90;;;;;;5014301;28;20059;-81
2022/05/13 05:12:26;;;;;;;;;;;13.00;99.90;;;;;;5030810;28;20368;-80
2022/05/13 05:14:51;;;;;;;;;;;13.00;99.90;;;;;;5029991;28;19978;-79
2022/05/13 05:17:17;;;;;;;;;;;13.00;99.90;;;;;;5011946;28;19972;-78
2022/05/13 05:19:42;;;;;;;;;;;13.00;99.90;;;;;;4997961;28;20031;-80
2022/05/13 05:22:08;;;;;;;;;;;13.00;99.90;;;;;;5013988;28;20019;-79
2022/05/13 05:24:33;;;;;;;;;;;13.00;99.90;;;;;;4997902;28;20372;-78
2022/05/13 05:26:59;;;;;;;;;;;13.10;99.90;;;;;;5029572;28;19925;-77
2022/05/13 05:29:25;;;;;;;;;;;13.00;99.90;;;;;;5014051;28;19937;-79
2022/05/13 05:31:50;;;;;;;;;;;13.10;99.90;;;;;;5015885;28;20000;-81
2022/05/13 05:34:17;;;;;;;;;;;13.10;99.90;;;;;;5022969;28;19929;-78
2022/05/13 05:36:43;;;;;;;;;;;13.10;99.90;;;;;;5016423;28;19975;-77
2022/05/13 05:39:09;;;;;;;;;;;13.10;99.90;;;;;;5033636;28;20300;-79
2022/05/13 05:41:34;;;;;;;;;;;13.10;99.90;;;;;;5017452;28;19948;-76
2022/05/13 05:44:00;;;;;;;;;;;13.10;99.90;;;;;;5017753;28;19929;-80
2022/05/13 05:46:26;;;;;;;;;;;13.10;99.90;;;;;;5005840;28;19936;-79
2022/05/13 05:48:51;;;;;;;;;;;13.10;99.90;;;;;;5015122;28;20114;-80
2022/05/13 05:51:17;;;;;;;;;;;13.20;99.90;;;;;;4998161;28;19925;-77
2022/05/13 05:59:11;;;;;;;;;;;13.10;99.90;;;;;;5013976;28;19936;-79
2022/05/13 06:01:36;;;;;;;;;;;13.20;99.90;;;;;;4997839;28;20328;-77
2022/05/13 06:04:02;;;;;;;;;;;13.20;99.90;;;;;;5021418;28;20308;-79
2022/05/13 06:06:28;;;;;;;;;;;13.20;99.90;;;;;;5033400;28;20289;-83
2022/05/13 06:08:57;;;;;;;;;;;13.20;99.90;;;;;;5000525;28;19935;-79
2022/05/13 06:11:23;;;;;;;;;;;13.30;99.90;;;;;;5017349;28;20383;-79
2022/05/13 06:13:53;;;;;;;;;;;13.30;99.90;;;;;;5016054;28;20333;-83
2022/05/13 06:16:19;;;;;;;;;;;13.30;99.90;;;;;;5013965;28;19969;-78
2022/05/13 06:18:45;;;;;;;;;;;13.30;99.90;;;;;;5013374;28;19926;-76
2022/05/13 06:21:11;;;;;;;;;;;13.30;99.90;;;;;;4981237;28;19929;-78
2022/05/13 06:23:36;;;;;;;;;;;13.30;99.90;;;;;;5013020;28;19930;-81
2022/05/13 06:26:02;;;;;;;;;;;13.20;99.90;;;;;;5013851;28;19925;-76
2022/05/13 06:28:28;;;;;;;;;;;13.30;99.90;;;;;;4997479;28;19927;-77
2022/05/13 06:30:53;;;;;;;;;;;13.50;99.90;;;;;;5012891;28;20336;-78
2022/05/13 06:33:19;;;;;;;;;;;13.60;99.90;;;;;;4997056;28;20293;-76
2022/05/13 06:35:45;;;;;;;;;;;13.70;99.90;;;;;;5013090;28;19929;-78
2022/05/13 06:38:20;;;;;;;;;;;13.80;99.90;;;;;;4996365;28;20020;-79
2022/05/13 06:40:49;;;;;;;;;;;13.80;99.90;;;;;;5013198;28;19936;-78
2022/05/13 06:43:15;;;;;;;;;;;13.80;99.90;;;;;;4995788;28;19936;-80
2022/05/13 06:45:44;;;;;;;;;;;13.80;99.90;;;;;;5012451;28;19925;-78
2022/05/13 06:48:10;;;;;;;;;;;13.80;99.90;;;;;;5005321;28;19925;-80
2022/05/13 06:50:36;;;;;;;;;;;13.70;99.90;;;;;;5041745;28;19929;-79
2022/05/13 06:53:02;;;;;;;;;;;13.80;99.90;;;;;;5038845;28;19925;-79
2022/05/13 06:55:28;;;;;;;;;;;13.70;99.90;;;;;;5032943;28;19925;-77
2022/05/13 06:57:53;;;;;;;;;;;13.70;99.90;;;;;;4999970;28;19975;-78
2022/05/13 07:00:19;;;;;;;;;;;13.80;99.90;;;;;;5016159;28;19975;-79
2022/05/13 07:02:45;;;;;;;;;;;13.80;99.90;;;;;;5032774;28;19929;-79
2022/05/13 07:05:11;;;;;;;;;;;13.80;99.90;;;;;;5032847;28;19936;-77
2022/05/13 07:07:37;;;;;;;;;;;13.70;99.90;;;;;;5032469;28;19972;-78
2022/05/13 07:10:03;;;;;;;;;;;13.70;99.90;;;;;;5031913;28;19979;-83
2022/05/13 07:12:29;;;;;;;;;;;13.70;99.90;;;;;;5016393;28;19975;-83
2022/05/13 07:14:55;;;;;;;;;;;13.80;99.90;;;;;;5026938;28;20341;-79
2022/05/13 07:17:21;;;;;;;;;;;13.80;99.90;;;;;;5045022;28;19995;-78
2022/05/13 07:19:47;;;;;;;;;;;13.90;99.90;;;;;;5027825;28;19936;-78
2022/05/13 07:22:12;;;;;;;;;;;13.90;99.90;;;;;;5007320;28;20293;-78
2022/05/13 07:24:38;;;;;;;;;;;13.90;99.90;;;;;;5014031;28;19963;-77
2022/05/13 07:27:04;;;;;;;;;;;14.00;99.90;;;;;;5048337;28;19925;-79
2022/05/13 07:29:30;;;;;;;;;;;14.00;99.90;;;;;;5031315;28;19932;-81
2022/05/13 07:31:55;;;;;;;;;;;14.00;99.90;;;;;;5024790;28;19925;-77
2022/05/13 07:34:22;;;;;;;;;;;14.00;99.90;;;;;;4995960;28;19926;-76
2022/05/13 07:36:48;;;;;;;;;;;14.00;99.90;;;;;;5045408;28;20011;-80
2022/05/13 07:41:59;;;;;;;;;;;13.90;99.90;;;;;;5012181;28;20301;-78
2022/05/13 07:44:24;;;;;;;;;;;14.00;99.90;;;;;;5018762;28;19932;-76
2022/05/13 07:46:51;;;;;;;;;;;14.00;99.90;;;;;;5031475;28;20039;-77
2022/05/13 07:49:17;;;;;;;;;;;14.10;99.90;;;;;;5015577;28;19929;-78
2022/05/13 07:51:42;;;;;;;;;;;14.10;99.90;;;;;;5014887;28;19979;-76
2022/05/13 07:54:08;;;;;;;;;;;14.20;99.90;;;;;;5014284;28;19933;-76
2022/05/13 07:56:34;;;;;;;;;;;14.20;99.90;;;;;;5031820;28;20361;-77
2022/05/13 07:59:02;;;;;;;;;;;14.20;99.90;;;;;;5014700;28;19925;-77
2022/05/13 08:01:28;;;;;;;;;;;14.10;99.90;;;;;;5031159;28;20015;-78
2022/05/13 08:03:53;;;;;;;;;;;14.10;99.90;;;;;;4998917;28;20028;-78
2022/05/13 08:06:19;;;;;;;;;;;14.20;99.90;;;;;;5014130;28;19925;-76
2022/05/13 08:08:46;;;;;;;;;;;14.20;99.90;;;;;;4999057;28;19979;-77
2022/05/13 08:11:13;;;;;;;;;;;14.40;99.90;;;;;;5014366;28;19920;-78
2022/05/13 08:13:39;;;;;;;;;;;14.40;99.90;;;;;;5029729;28;20329;-78
2022/05/13 08:16:05;;;;;;;;;;;14.40;99.90;;;;;;5031394;28;19929;-79
2022/05/13 08:18:31;;;;;;;;;;;14.50;99.90;;;;;;5015015;28;20436;-77
2022/05/13 08:20:57;;;;;;;;;;;14.60;99.90;;;;;;5014356;28;20016;-76
2022/05/13 08:23:23;;;;;;;;;;;14.60;99.90;;;;;;5013492;28;20639;-75
2022/05/13 08:25:48;;;;;;;;;;;14.60;99.90;;;;;;4995338;28;20313;-76
2022/05/13 08:28:15;;;;;;;;;;;14.60;99.90;;;;;;5021319;28;19927;-77
2022/05/13 08:30:41;;;;;;;;;;;14.80;99.90;;;;;;5023170;28;19979;-79
2022/05/13 08:33:08;;;;;;;;;;;14.90;99.90;;;;;;5029367;28;19929;-78
2022/05/13 08:35:38;;;;;;;;;;;14.90;99.90;;;;;;5017000;28;19921;-77
2022/05/13 08:38:03;;;;;;;;;;;15.00;99.90;;;;;;5017307;28;19925;-78
2022/05/13 08:40:54;;;;;;;;;;;15.10;99.90;;;;;;5019090;28;19934;-79
2022/05/13 08:43:23;;;;;;;;;;;15.10;99.90;;;;;;5002049;28;19925;-78
2022/05/13 08:45:50;;;;;;;;;;;15.00;99.90;;;;;;5002445;28;19929;-79
2022/05/13 08:48:17;;;;;;;;;;;15.10;99.90;;;;;;5038691;28;19933;-77
2022/05/13 08:51:02;;;;;;;;;;;15.10;99.90;;;;;;5021276;28;19929;-78
2022/05/13 08:53:31;;;;;;;;;;;15.10;99.90;;;;;;5014368;28;19932;-77
2022/05/13 08:55:59;;;;;;;;;;;15.20;99.90;;;;;;5023016;28;20309;-75
2022/05/13 08:58:30;;;;;;;;;;;15.10;99.90;;;;;;5020681;28;19973;-76
2022/05/13 09:00:57;;;;;;;;;;;15.10;99.90;;;;;;5021232;28;19929;-78
2022/05/13 09:03:38;;;;;;;;;;;15.30;99.90;;;;;;5004268;28;19929;-78
2022/05/13 09:06:06;;;;;;;;;;;15.20;99.90;;;;;;4999885;28;19932;-72
2022/05/13 09:08:33;;;;;;;;;;;15.30;99.90;;;;;;5007243;28;19968;-77
2022/05/13 09:11:14;;;;;;;;;;;15.30;99.90;;;;;;5024428;28;19932;-77
2022/05/13 09:13:49;;;;;;;;;;;15.30;99.90;;;;;;4997597;28;20019;-76
2022/05/13 09:16:16;;;;;;;;;;;15.40;99.90;;;;;;5014865;28;19964;-76
2022/05/13 09:18:48;;;;;;;;;;;15.20;99.90;;;;;;5010479;28;19925;-77
2022/05/13 09:21:19;;;;;;;;;;;15.30;99.90;;;;;;5015200;28;19925;-76
2022/05/13 09:23:45;;;;;;;;;;;15.40;99.90;;;;;;5015380;28;19932;-76
2022/05/13 09:26:16;;;;;;;;;;;15.50;99.90;;;;;;5051501;28;19929;-77
2022/05/13 09:29:00;;;;;;;;;;;15.50;99.90;;;;;;5020955;28;19956;-77
2022/05/13 09:31:29;;;;;;;;;;;15.40;99.90;;;;;;5015164;28;19992;-77
2022/05/13 09:33:55;;;;;;;;;;;15.40;99.90;;;;;;4998084;28;19925;-78
2022/05/13 09:36:25;;;;;;;;;;;15.20;99.90;;;;;;5049218;28;20445;-77
2022/05/13 09:38:52;;;;;;;;;;;15.30;99.90;;;;;;5024416;28;19929;-79
2022/05/13 09:41:24;;;;;;;;;;;15.30;99.90;;;;;;5033493;28;19925;-75
2022/05/13 09:43:57;;;;;;;;;;;15.40;99.90;;;;;;5017902;28;19929;-78
2022/05/13 09:46:30;;;;;;;;;;;15.60;99.90;;;;;;5017051;28;19927;-80
2022/05/13 09:48:58;;;;;;;;;;;15.60;99.90;;;;;;5000728;28;19932;-78
2022/05/13 09:51:30;;;;;;;;;;;15.60;99.90;;;;;;5014190;28;19926;-78
2022/05/13 09:54:13;;;;;;;;;;;15.60;99.90;;;;;;5014288;28;19972;-78
2022/05/13 09:56:41;;;;;;;;;;;15.60;99.90;;;;;;4997650;28;19952;-80
2022/05/13 09:59:13;;;;;;;;;;;15.60;99.90;;;;;;5016670;28;19925;-77
2022/05/13 10:01:39;;;;;;;;;;;15.70;99.90;;;;;;5034219;28;19932;-76
2022/05/13 10:04:08;;;;;;;;;;;15.70;99.90;;;;;;5017944;28;20020;-75
2022/05/13 10:06:37;;;;;;;;;;;15.60;99.90;;;;;;5017586;28;19925;-77
2022/05/13 10:14:41;;;;;;;;;;;15.80;99.90;;;;;;5000604;28;19936;-78
2022/05/13 10:17:27;;;;;;;;;;;15.70;99.90;;;;;;5013918;28;19935;-78
2022/05/13 10:19:55;;;;;;;;;;;15.90;99.90;;;;;;5016258;28;19925;-77
2022/05/13 10:22:41;;;;;;;;;;;16.20;99.90;;;;;;5027850;28;20023;-77
2022/05/13 10:25:12;;;;;;;;;;;16.40;99.90;;;;;;5029375;28;19939;-78
2022/05/13 10:27:40;;;;;;;;;;;16.50;99.90;;;;;;5018545;28;20340;-78
2022/05/13 10:30:07;;;;;;;;;;;16.60;99.90;;;;;;5005826;28;19929;-81
2022/05/13 10:32:42;;;;;;;;;;;16.80;99.90;;;;;;5027658;28;19925;-75
2022/05/13 10:35:10;;;;;;;;;;;17.00;99.90;;;;;;5030448;28;20284;-84
2022/05/13 10:37:45;;;;;;;;;;;16.90;99.90;;;;;;5023498;28;19936;-79
2022/05/13 10:40:12;;;;;;;;;;;16.90;99.90;;;;;;5006119;28;19937;-79
2022/05/13 10:42:42;;;;;;;;;;;17.00;99.90;;;;;;5025504;28;19932;-80
2022/05/13 10:45:20;;;;;;;;;;;16.80;99.90;;;;;;5020284;28;19925;-78
2022/05/13 10:47:48;;;;;;;;;;;16.70;99.90;;;;;;5004446;28;19929;-82
2022/05/13 10:50:13;;;;;;;;;;;16.70;99.90;;;;;;5022298;28;19963;-84
2022/05/13 10:52:45;;;;;;;;;;;16.80;99.90;;;;;;5019073;28;20013;-80
2022/05/13 10:55:11;;;;;;;;;;;16.80;99.90;;;;;;5020670;28;20373;-80
2022/05/13 10:57:49;;;;;;;;;;;16.80;99.90;;;;;;5016225;28;20022;-81
2022/05/13 11:00:19;;;;;;;;;;;16.80;99.90;;;;;;5020589;28;20051;-81
2022/05/13 11:03:04;;;;;;;;;;;16.80;99.90;;;;;;4996316;28;19948;-82
2022/05/13 11:05:40;;;;;;;;;;;16.80;99.90;;;;;;5027464;28;20940;-83
2022/05/13 11:08:12;;;;;;;;;;;16.80;99.90;;;;;;5031939;28;19933;-86
2022/05/13 11:10:42;;;;;;;;;;;16.80;99.90;;;;;;5030890;28;19925;-80
2022/05/13 11:13:08;;;;;;;;;;;16.70;99.90;;;;;;5031801;28;19925;-84
2022/05/13 11:15:33;;;;;;;;;;;16.70;99.90;;;;;;5018441;28;19929;-81
2022/05/13 11:18:18;;;;;;;;;;;16.70;99.90;;;;;;5005125;28;19926;-81
2022/05/13 11:20:43;;;;;;;;;;;16.90;99.90;;;;;;5029599;28;19925;-80
2022/05/13 11:23:17;;;;;;;;;;;17.20;99.90;;;;;;5029364;28;20293;-82
2022/05/13 11:25:54;;;;;;;;;;;17.40;99.90;;;;;;5023275;28;19929;-77
2022/05/13 11:28:23;;;;;;;;;;;17.80;99.90;;;;;;5014892;28;19925;-77
2022/05/13 11:31:02;;;;;;;;;;;17.60;99.90;;;;;;5030811;28;19932;-77
2022/05/13 11:33:46;;;;;;;;;;;17.50;99.90;;;;;;5029856;28;19929;-78
2022/05/13 11:36:14;;;;;;;;;;;17.40;99.90;;;;;;5035407;28;20015;-76
2022/05/13 11:38:55;;;;;;;;;;;17.10;99.90;;;;;;5022479;28;19930;-77
2022/05/13 11:41:22;;;;;;;;;;;17.40;99.90;;;;;;5025699;28;19925;-80
2022/05/13 11:43:54;;;;;;;;;;;17.70;99.90;;;;;;5018545;28;19926;-78
2022/05/13 11:46:28;;;;;;;;;;;17.90;99.90;;;;;;5032047;28;19925;-81
2022/05/13 11:49:09;;;;;;;;;;;18.10;99.90;;;;;;5021452;28;19933;-84
2022/05/13 11:51:35;;;;;;;;;;;17.80;99.90;;;;;;5011993;28;19976;-79
2022/05/13 11:54:01;;;;;;;;;;;17.30;99.90;;;;;;5013299;28;19929;-79
2022/05/13 11:56:26;;;;;;;;;;;17.70;99.90;;;;;;5011518;28;19929;-80
2022/05/13 11:58:52;;;;;;;;;;;17.70;99.90;;;;;;5014124;28;19925;-85
2022/05/13 12:01:36;;;;;;;;;;;17.40;99.90;;;;;;5021399;28;19932;-79
2022/05/13 12:04:17;;;;;;;;;;;17.50;99.90;;;;;;5011852;28;19929;-82
2022/05/13 12:06:55;;;;;;;;;;;17.50;99.90;;;;;;5011958;28;20016;-79
2022/05/13 12:09:36;;;;;;;;;;;17.00;99.90;;;;;;5025806;28;19974;-81
2022/05/13 12:12:21;;;;;;;;;;;17.10;99.90;;;;;;5027980;28;19948;-77
2022/05/13 12:15:03;;;;;;;;;;;17.00;99.90;;;;;;5030202;28;20345;-79
2022/05/13 12:17:47;;;;;;;;;;;17.40;99.90;;;;;;5013772;28;19925;-84
2022/05/13 12:20:13;;;;;;;;;;;17.30;99.90;;;;;;5030854;28;20008;-80
2022/05/13 12:22:47;;;;;;;;;;;17.50;99.90;;;;;;5028085;28;20064;-79
2022/05/13 12:25:35;;;;;;;;;;;17.40;99.90;;;;;;5030826;28;19987;-80
2022/05/13 12:28:02;;;;;;;;;;;17.60;99.90;;;;;;5031423;28;20373;-81
2022/05/13 12:30:31;;;;;;;;;;;17.70;99.90;;;;;;5030915;28;19929;-81
2022/05/13 12:33:17;;;;;;;;;;;17.60;99.90;;;;;;5030940;28;19929;-80
2022/05/13 12:38:27;;;;;;;;;;;17.70;99.90;;;;;;5011430;28;20336;-79
2022/05/13 12:41:11;;;;;;;;;;;17.10;99.90;;;;;;4995677;28;20068;-79
2022/05/13 12:43:46;;;;;;;;;;;17.10;99.90;;;;;;5015531;28;19936;-78
2022/05/13 12:46:16;;;;;;;;;;;17.10;99.90;;;;;;5015164;28;19990;-80
2022/05/13 12:49:00;;;;;;;;;;;17.00;99.90;;;;;;5034409;28;19925;-78
2022/05/13 12:51:32;;;;;;;;;;;16.80;99.90;;;;;;5033585;28;20086;-80
2022/05/13 12:53:58;;;;;;;;;;;16.70;99.90;;;;;;5034552;28;19936;-79
2022/05/13 12:56:32;;;;;;;;;;;16.60;99.90;;;;;;5034756;28;19979;-80
2022/05/13 12:59:04;;;;;;;;;;;16.50;99.90;;;;;;5032998;28;20365;-78
2022/05/13 13:01:30;;;;;;;;;;;16.50;99.90;;;;;;5033945;28;19967;-78
2022/05/13 13:03:56;;;;;;;;;;;16.50;99.90;;;;;;4999894;28;19960;-83
2022/05/13 13:06:23;;;;;;;;;;;16.30;99.90;;;;;;5014680;28;19925;-78
2022/05/13 13:08:49;;;;;;;;;;;16.30;99.90;;;;;;5032427;28;20463;-79
2022/05/13 13:11:22;;;;;;;;;;;16.30;99.90;;;;;;5041732;28;20393;-78
2022/05/13 13:14:07;;;;;;;;;;;16.40;99.90;;;;;;5007003;28;19925;-81
2022/05/13 13:16:39;;;;;;;;;;;16.70;99.90;;;;;;5033441;28;20369;-78
2022/05/13 13:19:05;;;;;;;;;;;17.40;99.90;;;;;;5034992;28;19988;-79
2022/05/13 13:21:31;;;;;;;;;;;17.70;99.90;;;;;;5034430;28;19925;-77
2022/05/13 13:23:57;;;;;;;;;;;17.80;99.90;;;;;;5034312;28;19925;-78
2022/05/13 13:26:23;;;;;;;;;;;17.60;99.90;;;;;;5031280;28;19940;-83
2022/05/13 13:28:51;;;;;;;;;;;17.40;99.90;;;;;;5007866;28;19944;-80
2022/05/13 13:31:22;;;;;;;;;;;17.50;99.90;;;;;;5033184;28;19952;-81
2022/05/13 13:33:56;;;;;;;;;;;17.60;99.90;;;;;;5015749;28;20051;-79
2022/05/13 13:36:26;;;;;;;;;;;17.40;99.90;;;;;;5011827;28;20289;-78
2022/05/13 13:38:53;;;;;;;;;;;17.10;99.90;;;;;;5031403;28;19932;-80
2022/05/13 13:41:26;;;;;;;;;;;17.20;99.90;;;;;;5032802;28;19925;-79
2022/05/13 13:43:53;;;;;;;;;;;17.20;99.90;;;;;;5032784;28;20442;-81
2022/05/13 13:46:22;;;;;;;;;;;17.20;99.90;;;;;;5012678;28;19979;-77
2022/05/13 13:48:52;;;;;;;;;;;17.40;99.90;;;;;;5017142;28;20019;-77
2022/05/13 13:51:22;;;;;;;;;;;17.40;99.90;;;;;;5033423;28;19978;-80
2022/05/13 13:53:53;;;;;;;;;;;17.00;99.90;;;;;;5033063;28;19932;-77
2022/05/13 13:56:19;;;;;;;;;;;17.10;99.90;;;;;;5007280;28;19925;-82
2022/05/13 13:58:54;;;;;;;;;;;17.40;99.90;;;;;;5024312;28;19947;-78
2022/05/13 14:01:25;;;;;;;;;;;17.50;99.90;;;;;;5033513;28;19929;-83
2022/05/13 14:04:05;;;;;;;;;;;18.30;99.90;;;;;;5015544;28;20023;-77
2022/05/13 14:06:30;;;;;;;;;;;18.30;99.90;;;;;;5031223;28;19933;-80
2022/05/13 14:08:56;;;;;;;;;;;18.70;99.90;;;;;;5032168;28;19925;-79
2022/05/13 14:11:23;;;;;;;;;;;18.40;99.90;;;;;;5033132;28;19929;-74
2022/05/13 14:13:50;;;;;;;;;;;18.20;99.90;;;;;;5033355;28;19925;-76
2022/05/13 14:16:21;;;;;;;;;;;18.40;99.90;;;;;;5030982;28;19925;-77
2022/05/13 14:18:48;;;;;;;;;;;18.10;99.90;;;;;;5031006;28;20027;-77
2022/05/13 14:21:23;;;;;;;;;;;18.50;99.90;;;;;;5033138;28;19948;-77
2022/05/13 14:23:59;;;;;;;;;;;18.70;99.90;;;;;;5032960;28;19925;-73
2022/05/13 14:26:26;;;;;;;;;;;18.50;99.90;;;;;;5027862;28;19929;-77
2022/05/13 14:28:53;;;;;;;;;;;19.10;99.90;;;;;;5025993;28;20052;-76
2022/05/13 14:31:32;;;;;;;;;;;19.20;99.90;;;;;;5031170;28;19932;-81
2022/05/13 14:33:59;;;;;;;;;;;19.70;99.90;;;;;;5029156;28;19951;-82
2022/05/13 14:36:34;;;;;;;;;;;20.40;99.40;;;;;;5025962;28;19971;-76
2022/05/13 14:41:55;;;;;;;;;;;20.80;98.00;;;;;;5030033;28;19925;-78
2022/05/13 14:44:22;;;;;;;;;;;20.50;97.50;;;;;;5032531;28;19929;-79
2022/05/13 14:47:02;;;;;;;;;;;20.00;98.90;;;;;;5031028;28;19932;-78
2022/05/13 14:49:48;;;;;;;;;;;19.60;99.10;;;;;;5020130;28;20059;-78
2022/05/13 14:52:46;;;;;;;;;;;19.10;99.90;;;;;;5015173;28;19929;-79
2022/05/13 14:55:21;;;;;;;;;;;18.80;99.90;;;;;;4993428;28;20369;-79
2022/05/13 14:57:48;;;;;;;;;;;18.50;99.90;;;;;;5029441;28;20387;-78
2022/05/13 15:00:20;;;;;;;;;;;18.10;99.90;;;;;;5028339;28;20308;-77